Time;durP1;ratioP1;P1;durP2;ratioP2;P2;SDS_P1;SDS_P2;PMS_P1;PMS_P2;Temp;Humidity;BMP_temperature;BMP_pressure;BME280_temperature;BME280_humidity;BME280_pressure;Samples;Min_cycle;Max_cycle;Signal;HPM_P1;HPM_P2
2022/05/30 03:02:24;;;;;;;0.70;0.60;;;9.70;74.50;;;;;;5189123;23;20501;-72
2022/05/30 03:04:50;;;;;;;0.70;0.70;;;9.60;74.90;;;;;;4976131;28;20442;-72
2022/05/30 03:07:17;;;;;;;0.70;0.60;;;9.50;75.40;;;;;;4976007;28;20492;-71
2022/05/30 03:09:44;;;;;;;0.70;0.63;;;9.50;75.50;;;;;;4975717;28;20898;-72
2022/05/30 03:12:11;;;;;;;0.70;0.63;;;9.50;75.50;;;;;;4975876;28;20556;-72
2022/05/30 03:14:38;;;;;;;1.47;0.80;;;9.50;75.50;;;;;;4999774;23;20478;-70
2022/05/30 03:17:05;;;;;;;0.77;0.60;;;9.50;75.40;;;;;;4975950;28;20481;-70
2022/05/30 03:19:33;;;;;;;0.73;0.70;;;9.50;75.40;;;;;;4975802;28;20865;-70
2022/05/30 03:22:00;;;;;;;0.70;0.60;;;9.50;75.40;;;;;;4975690;28;20450;-69
2022/05/30 03:24:26;;;;;;;0.70;0.60;;;9.60;75.10;;;;;;4975688;28;20862;-70
2022/05/30 03:26:53;;;;;;;0.73;0.60;;;9.60;75.10;;;;;;4975383;28;20504;-69
2022/05/30 03:29:19;;;;;;;0.70;0.70;;;9.50;75.10;;;;;;4975689;28;20446;-70
2022/05/30 03:31:46;;;;;;;0.80;0.70;;;9.60;75.30;;;;;;4975693;28;20442;-70
2022/05/30 03:34:13;;;;;;;0.80;0.70;;;9.60;75.30;;;;;;4975464;28;20486;-70
2022/05/30 03:36:41;;;;;;;0.80;0.70;;;9.60;75.10;;;;;;4975412;28;20470;-69
2022/05/30 03:39:08;;;;;;;0.70;0.63;;;9.60;75.20;;;;;;4975481;28;20918;-70
2022/05/30 03:41:35;;;;;;;1.27;0.90;;;9.70;75.20;;;;;;4975407;28;20446;-70
2022/05/30 03:44:01;;;;;;;0.70;0.60;;;9.70;75.20;;;;;;4975344;28;20446;-69
2022/05/30 03:46:29;;;;;;;0.70;0.70;;;9.70;75.00;;;;;;4975289;28;20478;-69
2022/05/30 03:48:55;;;;;;;0.70;0.60;;;9.70;75.00;;;;;;4975326;28;20505;-70
2022/05/30 03:51:22;;;;;;;0.80;0.70;;;9.70;75.00;;;;;;4975240;28;20504;-70
2022/05/30 03:53:51;;;;;;;0.70;0.60;;;9.70;75.20;;;;;;4975140;28;20507;-69
2022/05/30 03:56:18;;;;;;;0.70;0.60;;;9.70;74.70;;;;;;4975073;28;20466;-70
2022/05/30 03:58:45;;;;;;;0.70;0.60;;;9.80;74.10;;;;;;4974799;28;20871;-70
2022/05/30 04:01:12;;;;;;;0.70;0.60;;;9.70;74.10;;;;;;4975126;28;20450;-70
2022/05/30 04:03:40;;;;;;;0.70;0.70;;;9.70;73.80;;;;;;4975058;28;20442;-69
2022/05/30 04:06:08;;;;;;;0.70;0.60;;;9.70;74.10;;;;;;4974950;28;21049;-70
2022/05/30 04:08:34;;;;;;;0.70;0.60;;;9.70;74.50;;;;;;4975027;28;20505;-70
2022/05/30 04:11:03;;;;;;;0.70;0.70;;;9.70;74.30;;;;;;4974960;28;20450;-70
2022/05/30 04:13:29;;;;;;;0.70;0.70;;;9.70;74.40;;;;;;4974529;28;20992;-70
2022/05/30 04:15:56;;;;;;;0.70;0.70;;;9.80;74.20;;;;;;4974398;28;21052;-70
2022/05/30 04:18:23;;;;;;;0.80;0.67;;;9.80;74.30;;;;;;4974528;28;20481;-70
2022/05/30 04:20:49;;;;;;;0.80;0.70;;;9.90;74.50;;;;;;4974805;28;20822;-70
2022/05/30 04:23:17;;;;;;;0.70;0.70;;;9.90;74.40;;;;;;4974721;28;20454;-70
2022/05/30 04:25:43;;;;;;;0.70;0.60;;;10.00;74.20;;;;;;4974638;28;20477;-70
2022/05/30 04:28:11;;;;;;;0.70;0.70;;;10.10;74.20;;;;;;4974685;28;20446;-69
2022/05/30 04:30:38;;;;;;;0.80;0.67;;;10.20;73.90;;;;;;4974344;28;20446;-69
2022/05/30 04:33:05;;;;;;;0.70;0.70;;;10.30;73.50;;;;;;4974571;28;20458;-70
2022/05/30 04:35:32;;;;;;;0.70;0.70;;;10.30;73.50;;;;;;4974563;28;20469;-70
2022/05/30 04:37:58;;;;;;;0.70;0.63;;;10.40;73.30;;;;;;4974609;28;20454;-70
2022/05/30 04:40:25;;;;;;;0.90;0.60;;;10.50;73.30;;;;;;4974595;28;20500;-69
2022/05/30 04:42:52;;;;;;;0.80;0.80;;;10.60;73.30;;;;;;4974628;28;20866;-70
2022/05/30 04:45:20;;;;;;;0.70;0.60;;;10.70;73.20;;;;;;4974173;28;20985;-70
2022/05/30 04:47:46;;;;;;;1.00;0.90;;;10.90;73.10;;;;;;4974520;28;20454;-70
2022/05/30 04:50:16;;;;;;;0.70;0.60;;;11.00;72.60;;;;;;4974178;28;20852;-70
2022/05/30 04:52:43;;;;;;;1.00;0.70;;;11.10;72.30;;;;;;4974525;28;20548;-70
2022/05/30 04:55:10;;;;;;;0.70;0.50;;;11.20;72.10;;;;;;4974068;28;20489;-70
2022/05/30 04:57:41;;;;;;;0.70;0.60;;;11.30;72.60;;;;;;4974471;28;20457;-69
2022/05/30 05:00:09;;;;;;;0.70;0.60;;;11.40;73.30;;;;;;4974489;28;20525;-70
2022/05/30 05:02:37;;;;;;;0.70;0.60;;;11.60;73.40;;;;;;4974102;28;20481;-70
2022/05/30 05:05:04;;;;;;;0.80;0.70;;;11.80;72.60;;;;;;4974024;28;20493;-70
2022/05/30 05:07:39;;;;;;;0.70;0.57;;;11.90;71.70;;;;;;4974380;28;20868;-69
2022/05/30 05:10:28;;;;;;;0.70;0.60;;;12.10;71.80;;;;;;4974375;28;20835;-70
2022/05/30 05:12:55;;;;;;;1.37;0.60;;;12.40;71.40;;;;;;4974372;28;20449;-69
2022/05/30 05:15:22;;;;;;;0.70;0.60;;;12.40;70.40;;;;;;4973687;28;20844;-69
2022/05/30 05:17:50;;;;;;;0.70;0.60;;;12.40;70.90;;;;;;4973961;28;21000;-69
2022/05/30 05:20:16;;;;;;;0.80;0.70;;;12.20;72.10;;;;;;4974235;28;20504;-70
2022/05/30 05:22:43;;;;;;;0.70;0.60;;;12.20;72.70;;;;;;4974270;28;20516;-69
2022/05/30 05:25:10;;;;;;;0.80;0.70;;;12.10;73.20;;;;;;4973841;28;20980;-70
2022/05/30 05:27:37;;;;;;;0.70;0.60;;;12.10;73.70;;;;;;4974128;28;20633;-69
2022/05/30 05:30:05;;;;;;;0.70;0.60;;;12.20;72.00;;;;;;4974335;28;20497;-69
2022/05/30 05:32:32;;;;;;;0.70;0.60;;;11.60;72.20;;;;;;4974098;28;20860;-69
2022/05/30 05:35:00;;;;;;;0.70;0.70;;;11.50;74.00;;;;;;4973697;28;20490;-70
2022/05/30 05:37:26;;;;;;;0.83;0.70;;;11.70;73.80;;;;;;4974077;28;20553;-69
2022/05/30 05:39:53;;;;;;;0.70;0.60;;;11.80;73.10;;;;;;4974030;28;20454;-69
2022/05/30 05:42:20;;;;;;;0.90;0.60;;;11.80;73.90;;;;;;4974295;28;20458;-69
2022/05/30 05:44:47;;;;;;;0.70;0.60;;;12.10;73.30;;;;;;4977123;28;20985;-70
2022/05/30 05:47:13;;;;;;;0.70;0.70;;;12.50;72.30;;;;;;4977186;28;20945;-69
2022/05/30 05:49:40;;;;;;;0.70;0.60;;;12.90;71.80;;;;;;4977446;28;20453;-69
2022/05/30 05:52:08;;;;;;;0.70;0.63;;;12.90;71.20;;;;;;4977369;28;20449;-69
2022/05/30 05:54:36;;;;;;;0.97;0.70;;;13.10;71.50;;;;;;4977216;28;20481;-69
2022/05/30 05:57:03;;;;;;;0.70;0.70;;;13.30;71.50;;;;;;4977340;28;20454;-69
2022/05/30 05:59:29;;;;;;;0.70;0.60;;;13.20;71.70;;;;;;4977308;28;20462;-69
2022/05/30 06:01:56;;;;;;;0.70;0.60;;;13.20;71.50;;;;;;4977768;28;20453;-69
2022/05/30 06:04:23;;;;;;;0.70;0.70;;;13.00;70.50;;;;;;4977215;28;20457;-69
2022/05/30 06:06:50;;;;;;;0.70;0.60;;;12.90;71.70;;;;;;4977107;28;20471;-69
2022/05/30 06:09:17;;;;;;;0.87;0.60;;;12.90;69.20;;;;;;4977104;28;20485;-69
2022/05/30 06:11:44;;;;;;;0.70;0.60;;;12.70;70.00;;;;;;4976745;28;21005;-69
2022/05/30 06:14:11;;;;;;;0.70;0.60;;;13.10;69.80;;;;;;4976602;28;20993;-69
2022/05/30 06:16:40;;;;;;;0.80;0.70;;;13.20;69.70;;;;;;4976636;28;20489;-70
2022/05/30 06:19:07;;;;;;;0.70;0.60;;;13.40;70.30;;;;;;4977033;28;20458;-69
2022/05/30 06:21:34;;;;;;;0.70;0.70;;;13.80;69.20;;;;;;4976986;28;20505;-69
2022/05/30 06:24:02;;;;;;;1.10;0.80;;;13.80;68.60;;;;;;4976961;28;20496;-70
2022/05/30 06:26:30;;;;;;;0.80;0.70;;;13.80;69.90;;;;;;4976442;28;20478;-69
2022/05/30 06:28:57;;;;;;;0.70;0.70;;;13.80;68.80;;;;;;4976812;28;20461;-71
2022/05/30 06:31:26;;;;;;;1.00;0.70;;;13.80;70.40;;;;;;4976747;28;20461;-69
2022/05/30 06:33:54;;;;;;;0.83;0.80;;;13.90;69.50;;;;;;4976669;28;20829;-69
2022/05/30 06:36:23;;;;;;;0.70;0.60;;;13.70;69.70;;;;;;4976590;28;20492;-69
2022/05/30 06:38:51;;;;;;;0.80;0.60;;;13.80;69.00;;;;;;4976542;28;20450;-70
2022/05/30 06:41:20;;;;;;;0.70;0.60;;;13.80;67.90;;;;;;4976151;28;20964;-69
2022/05/30 06:43:50;;;;;;;0.70;0.60;;;13.90;67.20;;;;;;4976180;28;20869;-70
2022/05/30 06:46:18;;;;;;;0.70;0.63;;;13.80;68.10;;;;;;4976164;28;20988;-70
2022/05/30 06:48:44;;;;;;;0.80;0.60;;;13.90;65.40;;;;;;4976433;28;20509;-69
2022/05/30 06:51:13;;;;;;;0.70;0.60;;;13.90;64.80;;;;;;4976377;28;20449;-70
2022/05/30 06:53:41;;;;;;;0.80;0.70;;;14.00;66.00;;;;;;4975602;28;20461;-70
2022/05/30 06:56:13;;;;;;;0.90;0.70;;;14.10;66.00;;;;;;4976194;28;20548;-70
2022/05/30 06:58:40;;;;;;;0.80;0.70;;;14.30;65.30;;;;;;4975913;28;20913;-71
2022/05/30 07:01:09;;;;;;;0.70;0.70;;;14.70;65.40;;;;;;4976164;28;20820;-70
2022/05/30 07:03:36;;;;;;;0.90;0.70;;;15.00;64.50;;;;;;4976084;28;20453;-70
2022/05/30 07:06:06;;;;;;;2.77;0.70;;;15.20;62.80;;;;;;4975960;28;20470;-70
2022/05/30 07:08:33;;;;;;;1.20;1.10;;;15.60;62.30;;;;;;4975888;28;20446;-70
2022/05/30 07:11:00;;;;;;;0.70;0.70;;;15.20;63.20;;;;;;4975708;28;20945;-70
2022/05/30 07:13:27;;;;;;;0.70;0.70;;;15.50;63.20;;;;;;4975844;28;20556;-70
2022/05/30 07:15:55;;;;;;;0.80;0.67;;;15.70;61.10;;;;;;4975390;28;20552;-70
2022/05/30 07:18:23;;;;;;;0.80;0.70;;;16.10;60.70;;;;;;4975836;28;20454;-70
2022/05/30 07:20:56;;;;;;;0.80;0.70;;;16.00;61.70;;;;;;4975715;28;20453;-70
2022/05/30 07:23:23;;;;;;;0.70;0.63;;;16.00;62.40;;;;;;4975520;28;20785;-70
2022/05/30 07:25:50;;;;;;;0.80;0.70;;;16.10;61.70;;;;;;4975784;28;20520;-71
2022/05/30 07:28:17;;;;;;;0.70;0.70;;;15.90;62.80;;;;;;4975508;28;20954;-70
2022/05/30 07:30:44;;;;;;;0.70;0.70;;;15.90;62.10;;;;;;4975638;28;20446;-70
2022/05/30 07:33:10;;;;;;;0.90;0.80;;;15.90;62.50;;;;;;4975597;28;20450;-70
2022/05/30 07:35:38;;;;;;;0.70;0.70;;;15.70;62.30;;;;;;4975448;28;20907;-71
2022/05/30 07:38:05;;;;;;;0.80;0.70;;;15.80;63.20;;;;;;4976272;28;20849;-70
2022/05/30 07:40:32;;;;;;;0.70;0.67;;;16.20;62.60;;;;;;4975497;28;20858;-70
2022/05/30 07:42:58;;;;;;;0.73;0.73;;;16.20;61.40;;;;;;4975439;28;20449;-70
2022/05/30 07:45:25;;;;;;;0.70;0.70;;;16.20;61.60;;;;;;4975301;28;20462;-70
2022/05/30 07:47:52;;;;;;;0.70;0.70;;;16.50;59.80;;;;;;4975315;28;20450;-70
2022/05/30 07:50:19;;;;;;;0.80;0.60;;;16.50;60.20;;;;;;4975294;28;20454;-71
2022/05/30 07:52:47;;;;;;;0.80;0.80;;;16.80;60.00;;;;;;4975005;28;20942;-70
2022/05/30 07:55:14;;;;;;;0.70;0.60;;;17.10;60.50;;;;;;4975012;28;20490;-70
2022/05/30 07:57:53;;;;;;;1.00;0.80;;;17.10;60.20;;;;;;4975179;28;20453;-70
2022/05/30 08:00:22;;;;;;;0.80;0.80;;;16.80;59.30;;;;;;4975177;28;20443;-70
2022/05/30 08:02:49;;;;;;;0.70;0.60;;;17.10;59.20;;;;;;4975166;28;20450;-71
2022/05/30 08:05:18;;;;;;;0.70;0.60;;;17.40;58.20;;;;;;4974359;28;20524;-71
2022/05/30 08:07:46;;;;;;;0.80;0.80;;;17.70;57.60;;;;;;4975086;28;20497;-70
2022/05/30 08:10:14;;;;;;;0.70;0.60;;;17.90;57.10;;;;;;4975308;28;20457;-71
2022/05/30 08:12:41;;;;;;;0.80;0.77;;;17.90;56.60;;;;;;4974956;28;20453;-70
2022/05/30 08:15:09;;;;;;;0.77;0.73;;;18.10;56.60;;;;;;4974536;28;20489;-71
2022/05/30 08:17:36;;;;;;;0.70;0.70;;;17.90;56.40;;;;;;4974680;28;20968;-70
2022/05/30 08:20:04;;;;;;;1.33;0.70;;;17.60;57.50;;;;;;4974898;28;20858;-70
2022/05/30 08:22:33;;;;;;;0.70;0.60;;;17.40;57.50;;;;;;4974816;28;20446;-70
2022/05/30 08:25:04;;;;;;;1.00;0.70;;;17.50;58.20;;;;;;4974438;28;20470;-71
2022/05/30 08:27:32;;;;;;;0.70;0.70;;;17.70;57.70;;;;;;4974886;28;20514;-70
2022/05/30 08:29:58;;;;;;;1.87;1.23;;;18.00;56.50;;;;;;4974480;28;20532;-70
2022/05/30 08:32:31;;;;;;;0.80;0.80;;;18.20;55.00;;;;;;4974398;28;20946;-70
2022/05/30 08:34:59;;;;;;;1.83;0.70;;;18.50;55.90;;;;;;4974611;28;20540;-70
2022/05/30 08:37:30;;;;;;;0.70;0.60;;;18.70;53.50;;;;;;4974344;28;20838;-70
2022/05/30 08:42:42;;;;;;;0.90;0.80;;;18.50;51.80;;;;;;4974856;28;20497;-70
2022/05/30 08:45:09;;;;;;;0.80;0.60;;;18.00;51.80;;;;;;4974522;28;20467;-71
2022/05/30 08:47:46;;;;;;;0.80;0.70;;;17.80;53.10;;;;;;4974305;28;20442;-70
2022/05/30 08:50:23;;;;;;;0.70;0.60;;;17.70;53.70;;;;;;4974567;28;20492;-69
2022/05/30 08:53:10;;;;;;;0.80;0.60;;;17.60;50.10;;;;;;4974212;28;20870;-70
2022/05/30 08:55:46;;;;;;;0.70;0.70;;;17.50;53.40;;;;;;4974438;28;20906;-70
2022/05/30 08:58:33;;;;;;;0.90;0.60;;;17.40;51.90;;;;;;4974549;28;20489;-71
2022/05/30 09:01:04;;;;;;;0.70;0.70;;;17.20;53.50;;;;;;4974241;28;20873;-70
2022/05/30 09:03:36;;;;;;;0.77;0.63;;;16.90;52.80;;;;;;4974480;28;20439;-70
2022/05/30 09:06:07;;;;;;;0.70;0.70;;;16.80;53.90;;;;;;4974380;28;20466;-70
2022/05/30 09:08:37;;;;;;;0.70;0.70;;;17.00;54.80;;;;;;4974462;28;20435;-70
2022/05/30 09:11:12;;;;;;;0.90;0.63;;;17.50;55.30;;;;;;4974355;28;20462;-70
2022/05/30 09:13:46;;;;;;;0.80;0.60;;;17.80;52.70;;;;;;4974092;28;20957;-70
2022/05/30 09:16:20;;;;;;;0.70;0.60;;;17.60;51.20;;;;;;4998147;23;20588;-72
2022/05/30 09:18:49;;;;;;;0.80;0.70;;;17.80;50.60;;;;;;4976465;28;20980;-73
2022/05/30 09:21:18;;;;;;;0.70;0.60;;;17.30;50.50;;;;;;4976371;28;20870;-72
2022/05/30 09:23:45;;;;;;;0.90;0.77;;;17.00;50.20;;;;;;4976705;28;20450;-72
2022/05/30 09:26:16;;;;;;;0.87;0.60;;;16.90;50.20;;;;;;4976241;28;20812;-72
2022/05/30 09:28:46;;;;;;;0.90;0.70;;;17.30;50.10;;;;;;4976368;28;20921;-73
2022/05/30 09:31:22;;;;;;;0.70;0.60;;;17.30;52.30;;;;;;4976258;28;20433;-71
2022/05/30 09:33:51;;;;;;;0.70;0.60;;;17.60;50.20;;;;;;4976535;28;20438;-72
2022/05/30 09:36:20;;;;;;;0.80;0.70;;;17.80;48.70;;;;;;4976315;28;20489;-72
2022/05/30 09:38:48;;;;;;;0.70;0.50;;;17.80;48.00;;;;;;4976912;28;20449;-72
2022/05/30 09:41:21;;;;;;;0.70;0.60;;;18.10;46.20;;;;;;4976406;28;20446;-72
2022/05/30 09:43:55;;;;;;;1.20;0.53;;;18.40;46.80;;;;;;4975987;28;20883;-72
2022/05/30 09:46:32;;;;;;;0.90;0.60;;;18.40;47.30;;;;;;4976263;28;20466;-72
2022/05/30 09:49:04;;;;;;;0.70;0.57;;;18.60;46.90;;;;;;4976319;28;20438;-72
2022/05/30 09:51:33;;;;;;;0.70;0.60;;;18.70;49.70;;;;;;4975981;28;20868;-72
2022/05/30 09:54:00;;;;;;;0.70;0.60;;;19.10;48.00;;;;;;4976209;28;20458;-72
2022/05/30 09:56:29;;;;;;;1.07;0.60;;;19.10;47.60;;;;;;4975703;28;20486;-72
2022/05/30 09:59:06;;;;;;;0.80;0.67;;;18.80;47.20;;;;;;4976068;28;20496;-72
2022/05/30 10:01:36;;;;;;;1.33;0.60;;;18.50;48.40;;;;;;4975751;28;20857;-73
2022/05/30 10:04:30;;;;;;;0.70;0.60;;;18.70;46.80;;;;;;4976103;28;20434;-72
2022/05/30 10:07:14;;;;;;;0.70;0.60;;;18.80;47.80;;;;;;4975640;28;21037;-73
2022/05/30 10:09:50;;;;;;;0.70;0.60;;;19.10;45.90;;;;;;4975989;28;20422;-73
2022/05/30 10:12:29;;;;;;;0.70;0.50;;;19.40;47.20;;;;;;4975919;28;20484;-73
2022/05/30 10:14:57;;;;;;;0.70;0.60;;;19.40;45.90;;;;;;4941004;28;1011914;-73
2022/05/30 10:17:30;;;;;;;0.80;0.60;;;19.10;45.00;;;;;;4977759;28;20784;-72
2022/05/30 10:19:58;;;;;;;0.70;0.60;;;18.90;45.90;;;;;;4976886;28;20445;-73
2022/05/30 10:28:37;;;;;;;0.80;0.60;;;19.20;43.50;;;;;;4976134;28;20429;-73
2022/05/30 10:31:21;;;;;;;1.00;0.60;;;18.70;44.50;;;;;;4976408;28;20434;-72
2022/05/30 10:34:10;;;;;;;0.80;0.60;;;18.10;45.10;;;;;;4976661;28;20434;-72
2022/05/30 10:36:50;;;;;;;0.67;0.50;;;18.10;46.30;;;;;;4976403;28;20486;-72
2022/05/30 10:39:29;;;;;;;0.70;0.60;;;18.40;45.30;;;;;;4976559;28;20426;-72
2022/05/30 10:42:02;;;;;;;0.70;0.50;;;18.50;46.00;;;;;;4976575;28;20437;-72
2022/05/30 10:44:32;;;;;;;0.70;0.60;;;18.60;46.10;;;;;;4976277;28;20972;-73
2022/05/30 10:47:07;;;;;;;0.70;0.60;;;18.70;44.60;;;;;;4976598;28;20463;-72
2022/05/30 10:49:38;;;;;;;0.77;0.73;;;18.60;44.20;;;;;;4976685;28;20437;-72
2022/05/30 10:52:09;;;;;;;0.70;0.60;;;18.70;45.30;;;;;;4977223;28;20438;-73
2022/05/30 10:54:42;;;;;;;1.87;0.70;;;18.80;44.10;;;;;;4978821;28;20442;-73
2022/05/30 10:57:18;;;;;;;1.00;0.90;;;19.00;43.80;;;;;;4978659;28;20993;-72
2022/05/30 10:59:51;;;;;;;1.27;0.60;;;19.10;45.50;;;;;;4980406;28;20441;-72
2022/05/30 11:02:27;;;;;;;0.80;0.70;;;19.10;45.00;;;;;;4979443;28;20418;-73
2022/05/30 11:04:59;;;;;;;0.70;0.70;;;19.10;43.80;;;;;;4979994;28;20928;-72
2022/05/30 11:07:41;;;;;;;0.63;0.60;;;18.80;43.90;;;;;;4979837;28;20438;-72
2022/05/30 11:10:18;;;;;;;0.70;0.60;;;19.00;43.30;;;;;;4979892;28;20434;-73
2022/05/30 11:12:54;;;;;;;0.70;0.53;;;19.10;43.80;;;;;;4979571;28;20441;-72
2022/05/30 11:15:28;;;;;;;0.80;0.60;;;19.30;44.50;;;;;;4978605;28;20545;-74
2022/05/30 11:18:02;;;;;;;0.80;0.60;;;18.90;42.90;;;;;;4978386;28;20449;-73
2022/05/30 11:20:34;;;;;;;0.70;0.60;;;19.20;42.80;;;;;;4979657;28;20437;-73
2022/05/30 11:23:01;;;;;;;0.70;0.60;;;19.50;44.50;;;;;;4978783;28;20422;-73
2022/05/30 11:25:49;;;;;;;1.00;0.60;;;19.40;42.60;;;;;;4979144;28;20469;-72
2022/05/30 11:28:26;;;;;;;0.70;0.50;;;19.60;43.20;;;;;;4978682;28;20446;-75
2022/05/30 11:30:57;;;;;;;0.70;0.60;;;19.70;42.60;;;;;;4978860;28;20438;-72
2022/05/30 11:33:48;;;;;;;0.70;0.60;;;19.20;41.60;;;;;;4979297;28;20454;-72
2022/05/30 11:36:42;;;;;;;0.70;0.60;;;19.10;43.60;;;;;;4978165;28;20554;-73
2022/05/30 11:39:20;;;;;;;0.70;0.60;;;19.50;41.00;;;;;;4975306;28;20434;-73
2022/05/30 11:41:59;;;;;;;0.70;0.60;;;19.80;41.30;;;;;;4974590;28;20859;-73
2022/05/30 11:44:45;;;;;;;0.70;0.57;;;20.10;42.10;;;;;;4975407;28;20441;-73
2022/05/30 11:47:24;;;;;;;0.80;0.60;;;20.10;42.60;;;;;;4975196;28;20557;-72
2022/05/30 11:50:02;;;;;;;0.70;0.60;;;20.50;42.90;;;;;;4974997;28;20836;-73
2022/05/30 11:52:35;;;;;;;0.70;0.60;;;20.90;40.60;;;;;;4975168;28;20429;-73
2022/05/30 11:55:14;;;;;;;0.70;0.60;;;20.80;38.20;;;;;;4974799;28;20441;-73
2022/05/30 11:57:47;;;;;;;0.70;0.50;;;20.50;41.40;;;;;;4975105;28;20426;-73
2022/05/30 12:00:26;;;;;;;0.70;0.60;;;20.70;42.30;;;;;;4975035;28;20430;-72
2022/05/30 12:03:13;;;;;;;0.60;0.57;;;21.10;42.20;;;;;;4975327;28;20430;-73
2022/05/30 12:06:22;;;;;;;1.13;0.80;;;21.10;40.70;;;;;;4975037;28;20466;-73
2022/05/30 12:09:12;;;;;;;0.70;0.50;;;21.50;41.50;;;;;;4975739;28;20524;-73
2022/05/30 12:12:20;;;;;;;0.70;0.70;;;21.00;39.40;;;;;;4975008;28;20438;-71
2022/05/30 12:15:20;;;;;;;0.80;0.60;;;20.30;39.50;;;;;;4955208;28;20509;-73
2022/05/30 12:24:24;;;;;;;0.70;0.60;;;20.10;42.20;;;;;;4974669;28;20498;-73
2022/05/30 12:27:02;;;;;;;0.90;0.70;;;20.00;41.50;;;;;;4972652;28;20478;-73
2022/05/30 12:29:52;;;;;;;0.70;0.60;;;20.20;40.60;;;;;;4974609;28;20522;-73
2022/05/30 12:32:38;;;;;;;0.70;0.60;;;20.30;39.50;;;;;;4968653;28;20458;-73
2022/05/30 12:35:28;;;;;;;0.70;0.60;;;20.60;41.00;;;;;;4975232;28;20434;-73
2022/05/30 12:38:14;;;;;;;0.70;0.60;;;20.70;41.40;;;;;;4974363;28;20991;-73
2022/05/30 12:40:45;;;;;;;0.70;0.50;;;20.50;40.20;;;;;;4974577;28;20513;-73
2022/05/30 12:43:32;;;;;;;0.80;0.70;;;20.70;41.70;;;;;;4974432;28;20896;-72
2022/05/30 12:46:13;;;;;;;0.70;0.50;;;20.90;40.10;;;;;;4974487;28;20466;-73
2022/05/30 12:48:44;;;;;;;0.70;0.60;;;21.00;39.90;;;;;;4974531;28;20426;-73
2022/05/30 12:51:20;;;;;;;0.70;0.60;;;20.90;39.90;;;;;;4974948;28;20438;-72
2022/05/30 12:54:26;;;;;;;0.90;0.60;;;21.00;40.00;;;;;;4978470;28;20433;-72
2022/05/30 12:57:09;;;;;;;0.80;0.60;;;20.70;39.90;;;;;;4978168;28;20486;-73
2022/05/30 13:00:06;;;;;;;0.60;0.50;;;20.60;39.80;;;;;;4978349;28;20844;-73
2022/05/30 13:02:57;;;;;;;0.70;0.60;;;20.40;41.50;;;;;;4977996;28;21050;-73
2022/05/30 13:05:27;;;;;;;0.60;0.50;;;20.60;41.80;;;;;;4978027;28;20474;-74
2022/05/30 13:07:53;;;;;;;0.63;0.60;;;20.80;41.40;;;;;;4978188;28;20457;-73
2022/05/30 13:10:20;;;;;;;0.70;0.50;;;21.20;42.80;;;;;;4978338;28;20454;-73
2022/05/30 13:12:58;;;;;;;0.70;0.60;;;21.50;38.60;;;;;;4977871;28;20912;-73
2022/05/30 13:15:35;;;;;;;0.70;0.60;;;21.80;37.80;;;;;;4977512;28;20823;-73
2022/05/30 13:18:05;;;;;;;0.70;0.60;;;22.00;39.80;;;;;;4978098;28;20522;-73
2022/05/30 13:20:44;;;;;;;0.70;0.60;;;21.70;38.60;;;;;;4978357;28;20485;-73
2022/05/30 13:23:11;;;;;;;1.10;0.53;;;21.10;39.00;;;;;;4977993;28;20850;-73
2022/05/30 13:25:41;;;;;;;0.70;0.50;;;21.00;40.90;;;;;;4978389;28;20520;-73
2022/05/30 13:28:12;;;;;;;0.70;0.60;;;20.70;39.20;;;;;;4977799;28;20442;-73
2022/05/30 13:30:39;;;;;;;0.63;0.53;;;20.20;39.90;;;;;;4977872;28;20458;-73
2022/05/30 13:33:14;;;;;;;0.70;0.60;;;20.10;39.90;;;;;;4977716;28;20996;-73
2022/05/30 13:35:42;;;;;;;0.70;0.60;;;20.10;39.70;;;;;;4977679;28;20501;-73
2022/05/30 13:38:12;;;;;;;0.70;0.70;;;20.20;40.00;;;;;;4977401;28;21023;-73
2022/05/30 13:40:39;;;;;;;0.60;0.50;;;20.40;40.10;;;;;;4977622;28;20450;-73
2022/05/30 13:43:10;;;;;;;0.73;0.60;;;20.60;40.20;;;;;;4977326;28;21024;-73
2022/05/30 13:45:39;;;;;;;0.70;0.57;;;21.00;39.00;;;;;;4977469;28;20528;-73
2022/05/30 13:48:09;;;;;;;0.60;0.60;;;21.20;41.40;;;;;;4977511;28;20454;-73
2022/05/30 13:50:52;;;;;;;0.70;0.60;;;21.00;38.70;;;;;;4977363;28;20456;-73
2022/05/30 13:53:23;;;;;;;0.60;0.50;;;21.00;41.40;;;;;;4977353;28;20603;-73
2022/05/30 13:55:54;;;;;;;0.60;0.50;;;21.10;37.40;;;;;;4976851;28;21046;-73
2022/05/30 13:58:23;;;;;;;0.80;0.57;;;21.50;38.50;;;;;;4977736;28;20434;-73
2022/05/30 14:00:50;;;;;;;0.70;0.60;;;21.60;37.70;;;;;;4977216;28;20540;-74
2022/05/30 14:03:17;;;;;;;0.63;0.50;;;21.60;37.50;;;;;;4976047;28;20509;-73
2022/05/30 14:05:46;;;;;;;0.60;0.50;;;21.70;38.20;;;;;;4977039;28;20477;-73
2022/05/30 14:08:17;;;;;;;0.60;0.50;;;21.90;36.70;;;;;;4976831;28;20477;-73
2022/05/30 14:10:44;;;;;;;0.70;0.60;;;22.10;36.60;;;;;;4977173;28;20446;-73
2022/05/30 14:13:33;;;;;;;0.60;0.50;;;22.50;39.00;;;;;;4976811;28;20864;-73
2022/05/30 14:16:05;;;;;;;0.60;0.50;;;23.00;38.30;;;;;;4974641;28;20493;-73
2022/05/30 14:18:43;;;;;;;0.70;0.50;;;23.10;35.10;;;;;;4977051;28;20438;-73
2022/05/30 14:21:12;;;;;;;0.70;0.50;;;22.50;36.70;;;;;;4976680;28;20430;-73
2022/05/30 14:23:40;;;;;;;0.80;0.50;;;22.10;38.10;;;;;;4976867;28;20450;-73
2022/05/30 14:26:09;;;;;;;0.90;0.60;;;22.00;38.70;;;;;;4976704;28;21080;-73
2022/05/30 14:28:51;;;;;;;0.70;0.50;;;21.90;39.20;;;;;;4976797;28;20454;-73
2022/05/30 14:31:22;;;;;;;0.60;0.50;;;21.70;38.20;;;;;;4976764;28;20437;-73
2022/05/30 14:33:56;;;;;;;0.70;0.60;;;21.80;38.10;;;;;;4976738;28;20434;-73
2022/05/30 14:36:38;;;;;;;0.70;0.50;;;21.50;38.00;;;;;;4976197;28;20488;-73
2022/05/30 14:39:14;;;;;;;0.63;0.60;;;21.80;38.20;;;;;;4976593;28;20493;-73
2022/05/30 14:41:53;;;;;;;0.77;0.53;;;22.10;37.60;;;;;;4976552;28;20457;-73
2022/05/30 14:44:21;;;;;;;0.70;0.70;;;22.40;39.40;;;;;;4976493;28;20517;-73
2022/05/30 14:46:51;;;;;;;0.60;0.50;;;22.60;37.50;;;;;;4976427;28;20557;-73
2022/05/30 14:49:21;;;;;;;0.63;0.50;;;22.50;37.60;;;;;;4976469;28;20521;-73
2022/05/30 14:51:52;;;;;;;0.80;0.50;;;22.60;37.10;;;;;;4976733;28;20481;-72
2022/05/30 14:54:29;;;;;;;0.70;0.60;;;22.90;36.90;;;;;;4976302;28;20501;-73
2022/05/30 14:56:56;;;;;;;0.90;0.60;;;23.00;35.20;;;;;;4976189;28;20489;-72
2022/05/30 14:59:34;;;;;;;0.70;0.50;;;22.80;35.70;;;;;;4976209;28;20446;-73
2022/05/30 15:02:02;;;;;;;0.70;0.60;;;22.80;36.60;;;;;;4976171;28;20504;-73
2022/05/30 15:04:28;;;;;;;0.60;0.50;;;23.30;35.80;;;;;;4976121;28;20500;-73
2022/05/30 15:06:59;;;;;;;0.70;0.57;;;23.60;35.20;;;;;;4975995;28;20461;-73
2022/05/30 15:09:26;;;;;;;0.60;0.57;;;23.90;34.70;;;;;;4976085;28;20609;-73
2022/05/30 15:11:54;;;;;;;0.80;0.60;;;23.90;34.30;;;;;;4976024;28;20450;-73
2022/05/30 15:14:23;;;;;;;0.60;0.50;;;24.10;35.30;;;;;;4975665;28;20505;-73
2022/05/30 15:16:50;;;;;;;0.70;0.57;;;24.00;34.40;;;;;;5000140;23;20498;-68
2022/05/30 15:19:18;;;;;;;0.60;0.50;;;24.00;35.40;;;;;;4975739;28;20445;-68
2022/05/30 15:21:49;;;;;;;0.70;0.60;;;24.20;33.70;;;;;;4975628;28;20445;-68
2022/05/30 15:24:17;;;;;;;0.70;0.60;;;23.90;32.80;;;;;;4975582;28;20442;-68
2022/05/30 15:26:44;;;;;;;1.00;0.60;;;23.60;33.90;;;;;;4975274;28;20865;-69
2022/05/30 15:29:12;;;;;;;0.70;0.60;;;23.40;33.70;;;;;;4975849;28;20446;-69
2022/05/30 15:31:40;;;;;;;0.70;0.50;;;23.20;34.80;;;;;;4975394;28;20449;-70
2022/05/30 15:34:06;;;;;;;0.60;0.50;;;23.10;35.40;;;;;;4975084;28;20468;-68
2022/05/30 15:36:35;;;;;;;0.60;0.50;;;23.00;35.80;;;;;;4975243;28;20485;-70
2022/05/30 15:39:02;;;;;;;0.70;0.53;;;22.70;35.20;;;;;;4975361;28;20453;-68
2022/05/30 15:41:31;;;;;;;0.97;0.60;;;22.50;36.30;;;;;;4975439;28;20465;-69
2022/05/30 15:43:58;;;;;;;1.47;0.60;;;22.50;36.30;;;;;;4975242;28;20508;-68
2022/05/30 15:46:25;;;;;;;0.70;0.60;;;22.30;36.40;;;;;;4975221;28;20477;-69
2022/05/30 15:48:52;;;;;;;0.70;0.60;;;21.80;36.70;;;;;;4975157;28;20550;-68
2022/05/30 15:51:20;;;;;;;0.70;0.60;;;21.80;37.10;;;;;;4974976;28;20555;-70
2022/05/30 15:59:25;;;;;;;0.70;0.50;;;21.90;36.10;;;;;;4974969;28;20468;-68
2022/05/30 16:01:52;;;;;;;0.67;0.50;;;21.70;37.60;;;;;;4974606;28;20446;-69
2022/05/30 16:04:18;;;;;;;0.70;0.60;;;21.70;37.80;;;;;;4975255;28;20458;-70
2022/05/30 16:06:47;;;;;;;0.70;0.67;;;21.80;38.10;;;;;;4974989;28;20855;-68
2022/05/30 16:09:18;;;;;;;0.70;0.50;;;21.80;38.00;;;;;;4975585;28;20454;-69
2022/05/30 16:11:48;;;;;;;0.60;0.50;;;21.60;37.00;;;;;;4975443;28;20430;-68
2022/05/30 16:14:16;;;;;;;0.70;0.60;;;21.50;37.70;;;;;;4975371;28;20449;-69
2022/05/30 16:16:43;;;;;;;0.70;0.50;;;21.30;37.60;;;;;;4975097;28;20481;-69
2022/05/30 16:19:10;;;;;;;0.70;0.60;;;21.10;36.80;;;;;;4975083;28;20446;-69
2022/05/30 16:21:38;;;;;;;0.60;0.50;;;21.10;36.60;;;;;;4975302;28;20450;-70
2022/05/30 16:24:07;;;;;;;0.77;0.70;;;21.10;37.90;;;;;;4975310;28;20457;-70
2022/05/30 16:26:37;;;;;;;0.70;0.50;;;20.70;38.70;;;;;;4974587;28;20889;-69
2022/05/30 16:29:04;;;;;;;0.70;0.60;;;20.50;39.10;;;;;;4975256;28;20473;-69
2022/05/30 16:31:31;;;;;;;0.70;0.60;;;20.30;39.40;;;;;;4975091;28;20450;-72